Terminal Aerodrome Forecast
Issued by NWS

Home | Current Version | Previous Version | Text Only | Print | Product List | Glossary On
Versions: 1 2 3 4 5 6 7 8 9 10 11 12 13 14 15 16 17 18 19 20 21 22
920
FTUS44 KLZK 281138
TAFBPK
TAF
KBPK 281138Z 2812/2912 14009KT P6SM SCT025 OVC080 WS020/19035KT
     FM281500 16009G18KT P6SM VCSH SCT015 OVC050 WS020/20040KT
     FM281800 19010G20KT P6SM -SHRA VCTS BKN035CB OVC080
     FM290100 15009KT P6SM -RA VCTS SCT025CB OVC050 PROB30 2901/2907
      5SM TSRA BR OVC025CB=

USA.gov is the U.S. government's official web portal to all federal, state and local government web resources and services.